Time;durP1;ratioP1;P1;durP2;ratioP2;P2;SDS_P1;SDS_P2;PMS_P1;PMS_P2;Temp;Humidity;BMP_temperature;BMP_pressure;BME280_temperature;BME280_humidity;BME280_pressure;Samples;Min_cycle;Max_cycle;Signal;HPM_P1;HPM_P2
2022/11/28 00:01:55;;;;;;;17.10;8.50;;;6.90;99.90;;;;;;5047517;28;20052;-68
2022/11/28 00:04:21;;;;;;;14.02;8.43;;;6.90;99.90;;;;;;5030090;28;20041;-68
2022/11/28 00:06:50;;;;;;;14.23;8.65;;;6.90;99.90;;;;;;5035185;28;20098;-68
2022/11/28 00:09:19;;;;;;;12.73;8.40;;;6.90;99.90;;;;;;5035514;28;20037;-68
2022/11/28 00:11:46;;;;;;;18.20;8.80;;;7.00;99.90;;;;;;5029713;28;20052;-67
2022/11/28 00:14:12;;;;;;;13.23;8.25;;;6.90;99.90;;;;;;5028453;28;20087;-68
2022/11/28 00:16:38;;;;;;;18.60;8.75;;;6.90;99.90;;;;;;5035497;28;20427;-68
2022/11/28 00:19:05;;;;;;;15.40;8.52;;;7.00;99.90;;;;;;5041741;28;20511;-68
2022/11/28 00:21:31;;;;;;;15.35;8.68;;;7.00;99.90;;;;;;5026710;28;20045;-68
2022/11/28 00:23:58;;;;;;;13.68;8.82;;;7.00;99.90;;;;;;5034499;28;20052;-68
2022/11/28 00:26:30;;;;;;;14.35;8.13;;;7.00;99.90;;;;;;5035470;28;20037;-68
2022/11/28 00:28:56;;;;;;;13.85;8.48;;;7.10;99.90;;;;;;5050964;28;20064;-68
2022/11/28 00:31:26;;;;;;;13.38;8.23;;;7.00;99.90;;;;;;5052536;28;20128;-68
2022/11/28 00:33:52;;;;;;;15.93;8.73;;;7.00;99.90;;;;;;5034107;28;20479;-68
2022/11/28 00:36:19;;;;;;;13.82;8.10;;;7.10;99.90;;;;;;5042022;28;20029;-69
2022/11/28 00:38:45;;;;;;;14.23;9.18;;;7.10;99.90;;;;;;5032269;28;20537;-68
2022/11/28 00:41:13;;;;;;;15.48;8.70;;;7.10;99.90;;;;;;5035050;28;20068;-68
2022/11/28 00:43:39;;;;;;;12.95;7.95;;;7.10;99.90;;;;;;5025463;28;20056;-69
2022/11/28 00:46:06;;;;;;;13.93;8.38;;;7.10;99.90;;;;;;5029743;28;20045;-68
2022/11/28 00:48:32;;;;;;;14.07;8.13;;;7.10;99.90;;;;;;5052671;28;20045;-68
2022/11/28 00:51:13;;;;;;;14.05;8.52;;;7.10;99.90;;;;;;5026570;28;20046;-68
2022/11/28 00:53:41;;;;;;;14.35;8.30;;;7.20;99.90;;;;;;5027913;28;20056;-68
2022/11/28 00:56:08;;;;;;;14.20;8.27;;;7.20;99.90;;;;;;5034207;28;20119;-68
2022/11/28 00:58:35;;;;;;;12.35;7.78;;;7.20;99.90;;;;;;5034774;28;20033;-67
2022/11/28 01:01:17;;;;;;;14.98;9.30;;;7.20;99.90;;;;;;5042695;28;20040;-67
2022/11/28 01:03:43;;;;;;;13.95;9.18;;;7.20;99.90;;;;;;5033454;28;20041;-67
2022/11/28 01:06:10;;;;;;;13.02;8.10;;;7.20;99.90;;;;;;5052480;28;20037;-68
2022/11/28 01:08:36;;;;;;;16.00;8.27;;;7.20;99.90;;;;;;5029902;28;20063;-68
2022/11/28 01:11:02;;;;;;;16.02;8.15;;;7.20;99.90;;;;;;5025917;28;20037;-69
2022/11/28 01:13:27;;;;;;;14.05;8.80;;;7.20;99.90;;;;;;5033987;28;20037;-71
2022/11/28 01:15:53;;;;;;;13.23;8.40;;;7.20;99.90;;;;;;5052156;28;20110;-69
2022/11/28 01:18:19;;;;;;;13.88;8.40;;;7.30;99.90;;;;;;5020273;28;20135;-67
2022/11/28 01:20:45;;;;;;;13.40;8.30;;;7.30;99.90;;;;;;5049517;28;20120;-69
2022/11/28 01:23:10;;;;;;;12.93;8.25;;;7.30;99.90;;;;;;5034241;28;20064;-69
2022/11/28 01:25:36;;;;;;;15.02;8.70;;;7.30;99.90;;;;;;5030329;28;20041;-67
2022/11/28 01:28:02;;;;;;;18.23;8.50;;;7.30;99.90;;;;;;5033953;28;20458;-67
2022/11/28 01:30:27;;;;;;;12.40;8.43;;;7.30;99.90;;;;;;5051678;28;20036;-69
2022/11/28 01:32:53;;;;;;;13.02;8.00;;;7.30;99.90;;;;;;5051610;28;20040;-69
2022/11/28 01:35:19;;;;;;;15.93;7.97;;;7.30;99.90;;;;;;5035705;28;20102;-68
2022/11/28 01:37:44;;;;;;;17.00;9.23;;;7.30;99.90;;;;;;5049133;28;20045;-68
2022/11/28 01:40:11;;;;;;;16.35;8.43;;;7.30;99.90;;;;;;5052068;28;20048;-69
2022/11/28 01:42:37;;;;;;;15.50;8.98;;;7.30;99.90;;;;;;5025758;28;20411;-69
2022/11/28 01:45:21;;;;;;;13.80;8.50;;;7.30;99.90;;;;;;5041212;28;20044;-69
2022/11/28 01:47:49;;;;;;;15.68;8.70;;;7.40;99.90;;;;;;5033518;28;20053;-68
2022/11/28 01:50:15;;;;;;;17.17;8.43;;;7.40;99.90;;;;;;5033886;28;20376;-69
2022/11/28 01:52:46;;;;;;;16.15;8.77;;;7.40;99.90;;;;;;5025636;28;20079;-68
2022/11/28 01:55:16;;;;;;;13.55;9.57;;;7.40;99.90;;;;;;5051208;28;20430;-68
2022/11/28 01:57:42;;;;;;;13.57;8.60;;;7.40;99.90;;;;;;5047984;28;20045;-68
2022/11/28 02:00:14;;;;;;;14.68;9.13;;;7.50;99.90;;;;;;5015747;28;20037;-69
2022/11/28 02:02:42;;;;;;;16.75;9.52;;;7.50;99.90;;;;;;5030489;28;20115;-68
2022/11/28 02:05:08;;;;;;;14.82;9.48;;;7.50;99.90;;;;;;5051416;28;20045;-68
2022/11/28 02:07:35;;;;;;;13.88;8.93;;;7.50;99.90;;;;;;5023265;28;20052;-69
2022/11/28 02:10:05;;;;;;;14.45;9.18;;;7.50;99.90;;;;;;5032953;28;20070;-69
2022/11/28 02:12:30;;;;;;;18.60;9.57;;;7.50;99.90;;;;;;5033035;28;20041;-68
2022/11/28 02:15:23;;;;;;;15.35;9.73;;;7.50;99.90;;;;;;5023572;28;20055;-68
2022/11/28 02:18:19;;;;;;;15.07;8.23;;;7.60;99.90;;;;;;5024549;28;20503;-69
2022/11/28 02:21:03;;;;;;;18.88;8.98;;;7.60;99.90;;;;;;5032966;28;20076;-68
2022/11/28 02:23:56;;;;;;;14.40;8.98;;;7.60;99.90;;;;;;5026845;28;20049;-67
2022/11/28 02:26:37;;;;;;;15.32;8.68;;;7.60;99.90;;;;;;5027530;28;20048;-69
2022/11/28 02:29:09;;;;;;;13.80;8.65;;;7.60;99.90;;;;;;5025377;28;20040;-68
2022/11/28 02:31:34;;;;;;;;;;;7.70;99.90;;;;;;5038227;28;20484;-67
2022/11/28 02:34:20;;;;;;;18.70;9.30;;;7.70;99.90;;;;;;5040213;28;19963;-68
2022/11/28 02:36:55;;;;;;;15.38;8.57;;;7.70;99.90;;;;;;5051139;28;20044;-69
2022/11/28 02:39:27;;;;;;;16.38;8.98;;;7.70;99.90;;;;;;5028822;28;20041;-69
2022/11/28 02:42:05;;;;;;;14.52;9.35;;;7.80;99.90;;;;;;5049189;28;20041;-69
2022/11/28 02:44:41;;;;;;;17.90;9.80;;;7.70;99.90;;;;;;5032613;28;20041;-68
2022/11/28 02:47:23;;;;;;;15.60;9.20;;;7.80;99.90;;;;;;5065912;22;20069;-64
2022/11/28 02:50:01;;;;;;;16.00;9.63;;;7.80;99.90;;;;;;5041639;28;20049;-65
2022/11/28 02:52:33;;;;;;;15.00;9.23;;;7.80;99.90;;;;;;5029769;28;20050;-64
2022/11/28 02:55:00;;;;;;;15.18;9.30;;;7.80;99.90;;;;;;5031047;28;20092;-64
2022/11/28 02:57:38;;;;;;;15.23;8.68;;;7.80;99.90;;;;;;5034372;28;20650;-65
2022/11/28 03:00:27;;;;;;;14.48;8.45;;;7.80;99.90;;;;;;5034392;28;20037;-64
2022/11/28 03:03:04;;;;;;;15.88;9.70;;;7.90;99.90;;;;;;5034750;28;20049;-64
2022/11/28 03:05:56;;;;;;;13.73;9.27;;;7.90;99.90;;;;;;5032112;28;20410;-64
2022/11/28 03:08:59;;;;;;;16.48;8.70;;;7.90;99.90;;;;;;5034504;28;20499;-65
2022/11/28 03:11:39;;;;;;;16.55;9.15;;;7.90;99.90;;;;;;5034527;28;20084;-64
2022/11/28 03:14:27;;;;;;;14.50;9.27;;;7.90;99.90;;;;;;5034830;28;20495;-64
2022/11/28 03:17:19;;;;;;;15.05;9.38;;;7.90;99.90;;;;;;5034230;28;20077;-64
2022/11/28 03:20:11;;;;;;;14.77;8.98;;;8.00;99.90;;;;;;5031558;28;20049;-64
2022/11/28 03:22:49;;;;;;;15.68;9.52;;;8.00;99.90;;;;;;5031488;28;20048;-65
2022/11/28 03:25:35;;;;;;;17.27;10.05;;;8.00;99.90;;;;;;5033722;28;20045;-64
2022/11/28 03:28:33;;;;;;;16.33;9.65;;;8.00;99.90;;;;;;5034358;28;20037;-64
2022/11/28 03:31:28;;;;;;;16.17;9.60;;;8.00;99.90;;;;;;5023856;28;20046;-65
2022/11/28 03:33:57;;;;;;;16.48;9.05;;;8.00;99.90;;;;;;5029292;28;20384;-65
2022/11/28 03:36:37;;;;;;;19.02;10.80;;;8.00;99.90;;;;;;5034139;28;20565;-64
2022/11/28 03:39:12;;;;;;;16.48;10.27;;;8.10;99.90;;;;;;5042320;28;20033;-64
2022/11/28 03:41:42;;;;;;;13.90;9.35;;;8.10;99.90;;;;;;5043363;28;20073;-65
2022/11/28 03:44:15;;;;;;;19.98;9.95;;;8.10;99.90;;;;;;5033970;28;20057;-65
2022/11/28 03:46:45;;;;;;;15.38;10.35;;;8.00;99.90;;;;;;5031808;28;20052;-65
2022/11/28 03:49:18;;;;;;;14.43;9.45;;;8.00;99.90;;;;;;5035606;28;20082;-64
2022/11/28 03:52:13;;;;;;;19.58;10.70;;;8.00;99.90;;;;;;5033739;28;20038;-65
2022/11/28 03:54:51;;;;;;;19.40;10.13;;;8.00;99.90;;;;;;5028365;28;20053;-64
2022/11/28 03:57:38;;;;;;;17.98;11.15;;;8.00;99.90;;;;;;5033388;28;20095;-64
2022/11/28 04:00:10;;;;;;;20.73;11.00;;;8.00;99.90;;;;;;5033849;28;20041;-65
2022/11/28 04:03:09;;;;;;;17.38;11.20;;;8.00;99.90;;;;;;5053136;28;20072;-65
2022/11/28 04:05:45;;;;;;;18.98;12.30;;;8.00;99.90;;;;;;5041208;28;20042;-65
2022/11/28 04:08:25;;;;;;;21.65;12.30;;;8.00;99.90;;;;;;5032885;28;20037;-64
2022/11/28 04:11:18;;;;;;;19.88;12.80;;;8.00;99.90;;;;;;5032061;28;20077;-65
2022/11/28 04:13:53;;;;;;;18.75;11.75;;;8.00;99.90;;;;;;5043076;28;20044;-65
2022/11/28 04:16:33;;;;;;;21.27;12.80;;;8.00;99.90;;;;;;5033378;28;20085;-65
2022/11/28 04:19:12;;;;;;;24.50;14.10;;;8.00;99.90;;;;;;5031466;28;20037;-64
2022/11/28 04:21:54;;;;;;;19.95;13.00;;;8.00;99.90;;;;;;5032253;28;20048;-64
2022/11/28 04:24:40;;;;;;;25.08;13.88;;;8.00;99.90;;;;;;5033068;28;20117;-65
2022/11/28 04:27:11;;;;;;;24.55;14.15;;;8.00;99.90;;;;;;5031424;28;20053;-65
2022/11/28 04:29:42;;;;;;;24.73;14.17;;;8.00;99.90;;;;;;5032731;28;20050;-65
2022/11/28 04:32:09;;;;;;;23.77;14.25;;;8.00;99.90;;;;;;5032955;28;20038;-65
2022/11/28 04:34:36;;;;;;;22.83;14.70;;;8.00;99.90;;;;;;5033149;28;20073;-65
2022/11/28 04:37:05;;;;;;;23.80;15.10;;;8.00;99.90;;;;;;5033396;28;20098;-64
2022/11/28 04:39:33;;;;;;;25.95;15.27;;;8.00;99.90;;;;;;5033299;28;20515;-65
2022/11/28 04:42:12;;;;;;;24.60;15.27;;;8.10;99.90;;;;;;5052274;28;20064;-65
2022/11/28 04:45:14;;;;;;;24.52;16.05;;;8.10;99.90;;;;;;5037063;28;20091;-64
2022/11/28 04:47:40;;;;;;;23.27;14.95;;;8.10;99.90;;;;;;5031274;28;20033;-64
2022/11/28 04:50:07;;;;;;;23.92;15.15;;;8.10;99.90;;;;;;5032184;28;20075;-64
2022/11/28 04:52:45;;;;;;;24.90;15.48;;;8.10;99.90;;;;;;5039568;28;20076;-64
2022/11/28 04:55:52;;;;;;;25.30;15.13;;;8.10;99.90;;;;;;5029838;28;20128;-64
2022/11/28 04:58:33;;;;;;;23.80;15.35;;;8.10;99.90;;;;;;5031598;28;20052;-64
2022/11/28 05:01:00;;;;;;;24.90;14.73;;;8.10;99.90;;;;;;5030617;28;20112;-64
2022/11/28 05:03:28;;;;;;;26.23;16.27;;;8.10;99.90;;;;;;5041575;28;20045;-64
2022/11/28 05:05:53;;;;;;;26.83;16.20;;;8.10;99.90;;;;;;5033136;28;20055;-64
2022/11/28 05:08:20;;;;;;;22.67;15.10;;;8.20;99.90;;;;;;5032426;28;20116;-64
2022/11/28 05:10:46;;;;;;;28.02;16.15;;;8.20;99.90;;;;;;5030713;28;20048;-65
2022/11/28 05:13:12;;;;;;;27.52;16.70;;;8.10;99.90;;;;;;5037553;28;20033;-64
2022/11/28 05:15:38;;;;;;;30.80;16.15;;;8.20;99.90;;;;;;5030613;28;20041;-65
2022/11/28 05:18:03;;;;;;;26.60;16.02;;;8.20;99.90;;;;;;5032741;28;20037;-64
2022/11/28 05:20:29;;;;;;;28.52;16.95;;;8.20;99.90;;;;;;5031023;28;20052;-65
2022/11/28 05:22:55;;;;;;;27.02;16.98;;;8.20;99.90;;;;;;5031657;28;20093;-64
2022/11/28 05:25:21;;;;;;;27.13;16.92;;;8.20;99.90;;;;;;5032029;28;20425;-64
2022/11/28 05:27:46;;;;;;;29.27;17.52;;;8.20;99.90;;;;;;5029205;28;20087;-64
2022/11/28 05:30:13;;;;;;;28.38;17.55;;;8.20;99.90;;;;;;5030466;28;20049;-64
2022/11/28 05:32:39;;;;;;;26.80;17.23;;;8.30;99.90;;;;;;5031584;28;20033;-64
2022/11/28 05:35:05;;;;;;;26.67;17.52;;;8.30;99.90;;;;;;5029867;28;20048;-65
2022/11/28 05:37:31;;;;;;;27.40;17.10;;;8.30;99.90;;;;;;5033143;28;20415;-64
2022/11/28 05:39:56;;;;;;;26.40;16.25;;;8.30;99.90;;;;;;5035261;28;20414;-64
2022/11/28 05:42:22;;;;;;;27.88;17.85;;;8.30;99.90;;;;;;5051408;28;20041;-64
2022/11/28 05:44:48;;;;;;;30.23;18.33;;;8.30;99.90;;;;;;5044696;28;20076;-64
2022/11/28 05:47:17;;;;;;;29.88;18.30;;;8.30;99.90;;;;;;5028546;28;20037;-64
2022/11/28 05:49:44;;;;;;;26.70;16.55;;;8.30;99.90;;;;;;5031884;28;20033;-64
2022/11/28 05:52:10;;;;;;;25.65;15.57;;;8.30;99.90;;;;;;5039502;28;20041;-64
2022/11/28 05:54:36;;;;;;;27.20;17.15;;;8.40;99.90;;;;;;5044859;28;20171;-65
2022/11/28 05:57:01;;;;;;;27.10;16.50;;;8.30;99.90;;;;;;5045993;28;20048;-67
2022/11/28 05:59:27;;;;;;;24.98;15.50;;;8.30;99.90;;;;;;5049760;28;20133;-67
2022/11/28 06:01:52;;;;;;;24.92;16.10;;;8.30;99.90;;;;;;5045664;28;20033;-67
2022/11/28 06:04:21;;;;;;;24.38;15.35;;;8.30;99.90;;;;;;5043049;28;20040;-67
2022/11/28 06:06:50;;;;;;;23.35;15.25;;;8.40;99.90;;;;;;5042188;28;20040;-67
2022/11/28 06:09:16;;;;;;;24.25;14.82;;;8.40;99.90;;;;;;5036193;28;20044;-65
2022/11/28 06:11:42;;;;;;;23.40;14.55;;;8.30;99.90;;;;;;5038921;28;20402;-65
2022/11/28 06:14:09;;;;;;;21.88;14.52;;;8.30;99.90;;;;;;5043504;28;20077;-67
2022/11/28 06:16:34;;;;;;;20.55;12.95;;;8.30;99.90;;;;;;5039410;28;20034;-67
2022/11/28 06:19:03;;;;;;;24.00;13.57;;;8.30;99.90;;;;;;5033603;28;20037;-65
2022/11/28 06:21:29;;;;;;;21.55;14.30;;;8.40;99.90;;;;;;5039179;28;20487;-65
2022/11/28 06:23:59;;;;;;;22.52;14.93;;;8.30;99.90;;;;;;5039243;28;20053;-65
2022/11/28 06:26:26;;;;;;;20.63;12.27;;;8.30;99.90;;;;;;5037847;28;20037;-65
2022/11/28 06:28:54;;;;;;;23.45;15.00;;;8.40;99.90;;;;;;5042653;28;20125;-66
2022/11/28 06:31:26;;;;;;;22.77;12.93;;;8.40;99.90;;;;;;5031486;28;20415;-66
2022/11/28 06:33:52;;;;;;;19.35;12.75;;;8.30;99.90;;;;;;5040745;28;20053;-66
2022/11/28 06:36:19;;;;;;;20.88;13.80;;;8.30;99.90;;;;;;5036131;28;20041;-66
2022/11/28 06:38:45;;;;;;;21.80;13.57;;;8.30;99.90;;;;;;5035014;28;20406;-66
2022/11/28 06:41:14;;;;;;;20.88;13.52;;;8.30;99.90;;;;;;5045546;28;20852;-66
2022/11/28 06:43:40;;;;;;;19.23;12.68;;;8.30;99.90;;;;;;5043196;28;20095;-65
2022/11/28 06:46:13;;;;;;;22.75;13.40;;;8.40;99.90;;;;;;5054498;28;20041;-65
2022/11/28 06:48:39;;;;;;;22.02;13.05;;;8.30;99.90;;;;;;5054057;28;20048;-65
2022/11/28 06:51:06;;;;;;;24.30;13.45;;;8.30;99.90;;;;;;5038572;28;20033;-64
2022/11/28 06:53:32;;;;;;;21.08;12.68;;;8.30;99.90;;;;;;5034424;28;20108;-65
2022/11/28 06:56:07;;;;;;;22.33;12.93;;;8.30;99.90;;;;;;5034906;28;20095;-65
2022/11/28 06:58:34;;;;;;;24.58;13.98;;;8.30;99.90;;;;;;5037060;28;20049;-71
2022/11/28 07:01:11;;;;;;;24.75;14.00;;;8.30;99.90;;;;;;5041263;28;20047;-65
2022/11/28 07:03:38;;;;;;;22.40;13.50;;;8.30;99.90;;;;;;5034428;28;20048;-65
2022/11/28 07:06:04;;;;;;;21.45;13.38;;;8.30;99.90;;;;;;5034639;28;20056;-65
2022/11/28 07:08:30;;;;;;;22.63;13.50;;;8.20;99.90;;;;;;5040886;28;20033;-65
2022/11/28 07:10:56;;;;;;;20.13;12.63;;;8.20;99.90;;;;;;5037267;28;20348;-65
2022/11/28 07:13:23;;;;;;;21.33;12.90;;;8.30;99.90;;;;;;5054554;28;20115;-65
2022/11/28 07:15:51;;;;;;;21.52;13.45;;;8.30;99.90;;;;;;5043161;28;20048;-65
2022/11/28 07:18:17;;;;;;;26.75;14.23;;;8.20;99.90;;;;;;5044519;28;20041;-65
2022/11/28 07:20:43;;;;;;;21.73;13.05;;;8.20;99.90;;;;;;5031869;28;20052;-65
2022/11/28 07:23:08;;;;;;;22.33;13.65;;;8.30;99.90;;;;;;5046979;28;20447;-67
2022/11/28 07:25:34;;;;;;;24.27;13.50;;;8.20;99.90;;;;;;5054278;28;20049;-67
2022/11/28 07:27:59;;;;;;;22.35;13.25;;;8.30;99.90;;;;;;5038645;28;20391;-67
2022/11/28 07:30:25;;;;;;;21.50;13.90;;;8.30;99.90;;;;;;5036167;28;20090;-67
2022/11/28 07:32:50;;;;;;;23.05;13.82;;;8.30;99.90;;;;;;5036888;28;20040;-67
2022/11/28 07:35:16;;;;;;;22.05;13.35;;;8.30;99.90;;;;;;5033537;28;20033;-67
2022/11/28 07:37:42;;;;;;;20.30;13.55;;;8.30;99.90;;;;;;5049954;28;20128;-67
2022/11/28 07:40:07;;;;;;;20.98;12.55;;;8.30;99.90;;;;;;5045817;28;20080;-66
2022/11/28 07:42:34;;;;;;;23.30;12.80;;;8.30;99.90;;;;;;5032968;28;20041;-66
2022/11/28 07:44:59;;;;;;;20.15;13.25;;;8.30;99.90;;;;;;5033283;28;20049;-67
2022/11/28 07:47:25;;;;;;;18.80;12.88;;;8.30;99.90;;;;;;5033698;28;20043;-66
2022/11/28 07:49:51;;;;;;;21.85;13.10;;;8.30;99.90;;;;;;5046207;28;20037;-66
2022/11/28 07:52:16;;;;;;;20.83;13.40;;;8.30;99.90;;;;;;5032201;28;20049;-66
2022/11/28 07:54:42;;;;;;;21.40;13.32;;;8.30;99.90;;;;;;5033612;28;20124;-66
2022/11/28 07:57:08;;;;;;;22.58;14.20;;;8.30;99.90;;;;;;5032110;28;20029;-66
2022/11/28 07:59:33;;;;;;;21.00;13.40;;;8.40;99.90;;;;;;5033495;28;20491;-66
2022/11/28 08:01:59;;;;;;;22.73;14.15;;;8.30;99.90;;;;;;5032034;28;20055;-66
2022/11/28 08:04:24;;;;;;;23.42;14.13;;;8.30;99.90;;;;;;5033170;28;20126;-66
2022/11/28 08:06:50;;;;;;;26.08;14.93;;;8.30;99.90;;;;;;5030387;28;20033;-67
2022/11/28 08:09:16;;;;;;;28.10;15.50;;;8.30;99.90;;;;;;5033253;28;20125;-67
2022/11/28 08:11:41;;;;;;;26.98;15.30;;;8.30;99.90;;;;;;5032884;28;20033;-66
2022/11/28 08:14:08;;;;;;;24.80;14.40;;;8.30;99.90;;;;;;5032428;28;20064;-66
2022/11/28 08:16:33;;;;;;;23.83;14.57;;;8.30;99.90;;;;;;5048806;28;20033;-67
2022/11/28 08:19:00;;;;;;;26.65;15.50;;;8.30;99.90;;;;;;5033096;28;20071;-66
2022/11/28 08:21:29;;;;;;;22.48;14.20;;;8.30;99.90;;;;;;5034131;28;20090;-66
2022/11/28 08:23:58;;;;;;;24.38;14.75;;;8.30;99.90;;;;;;5043795;28;20040;-66
2022/11/28 08:26:25;;;;;;;27.02;15.48;;;8.30;99.90;;;;;;5032802;28;20045;-66
2022/11/28 08:28:52;;;;;;;26.55;15.18;;;8.30;99.90;;;;;;5030003;28;20042;-66
2022/11/28 08:31:30;;;;;;;26.17;14.85;;;8.30;99.90;;;;;;5032374;28;20037;-65
2022/11/28 08:33:57;;;;;;;25.05;15.40;;;8.30;99.90;;;;;;5032751;28;20041;-66
2022/11/28 08:36:23;;;;;;;24.52;15.35;;;8.30;99.90;;;;;;5039869;28;20085;-66
2022/11/28 08:38:49;;;;;;;29.60;14.40;;;8.30;99.90;;;;;;5031603;28;20072;-66
2022/11/28 08:41:18;;;;;;;22.75;14.00;;;8.40;99.90;;;;;;5033053;28;20058;-66
2022/11/28 08:43:45;;;;;;;23.60;14.20;;;8.40;99.90;;;;;;5029612;28;20049;-66
2022/11/28 08:46:14;;;;;;;23.30;14.68;;;8.40;99.90;;;;;;5056380;22;20563;-69
2022/11/28 08:48:40;;;;;;;26.10;15.30;;;8.40;99.90;;;;;;5012335;28;20042;-69
2022/11/28 08:51:08;;;;;;;27.33;15.20;;;8.40;99.90;;;;;;4988578;28;20080;-69
2022/11/28 08:53:34;;;;;;;22.90;14.07;;;8.40;99.90;;;;;;5008525;28;20038;-69
2022/11/28 08:55:59;;;;;;;23.70;14.18;;;8.40;99.90;;;;;;5007925;28;20060;-69
2022/11/28 08:58:25;;;;;;;26.10;14.95;;;8.40;99.90;;;;;;4992547;28;20070;-69
2022/11/28 09:00:51;;;;;;;26.10;14.85;;;8.40;99.90;;;;;;4994582;28;20053;-69
2022/11/28 09:03:18;;;;;;;22.15;13.80;;;8.40;99.90;;;;;;4991869;28;20046;-69
2022/11/28 09:05:45;;;;;;;22.05;14.18;;;8.40;99.90;;;;;;4988157;28;20037;-69
2022/11/28 09:08:16;;;;;;;25.85;15.15;;;8.40;99.90;;;;;;4994363;28;20077;-69
2022/11/28 09:10:43;;;;;;;27.25;14.43;;;8.50;99.90;;;;;;4995160;28;20049;-69
2022/11/28 09:13:10;;;;;;;22.92;14.25;;;8.50;99.90;;;;;;4984660;28;20038;-69
2022/11/28 09:15:44;;;;;;;24.83;14.98;;;8.60;99.90;;;;;;4986053;28;20050;-69
2022/11/28 09:18:13;;;;;;;22.90;14.02;;;8.60;99.90;;;;;;5007424;28;20069;-69
2022/11/28 09:20:40;;;;;;;24.17;14.65;;;8.60;99.90;;;;;;4994517;28;20124;-69
2022/11/28 09:23:07;;;;;;;25.02;14.65;;;8.60;99.90;;;;;;4987086;28;20052;-69
2022/11/28 09:25:39;;;;;;;23.58;14.68;;;8.60;99.90;;;;;;5004842;28;20507;-69
2022/11/28 09:28:05;;;;;;;25.90;15.68;;;8.70;99.90;;;;;;4980412;28;20389;-69
2022/11/28 09:30:32;;;;;;;24.50;14.40;;;8.70;99.90;;;;;;4990153;28;20053;-69
2022/11/28 09:32:57;;;;;;;21.30;14.27;;;8.70;99.90;;;;;;4993978;28;20046;-69
2022/11/28 09:35:23;;;;;;;23.85;15.05;;;8.70;99.90;;;;;;4994396;28;20052;-69
2022/11/28 09:37:49;;;;;;;24.77;14.85;;;8.70;99.90;;;;;;4983805;28;20057;-69
2022/11/28 09:40:30;;;;;;;24.13;15.18;;;8.70;99.90;;;;;;5007578;28;20168;-69
2022/11/28 09:43:00;;;;;;;23.73;15.13;;;8.70;99.90;;;;;;4994199;28;20049;-69
2022/11/28 09:45:26;;;;;;;23.85;14.32;;;8.70;99.90;;;;;;4983034;28;20412;-69
2022/11/28 09:48:04;;;;;;;22.30;14.55;;;8.70;99.90;;;;;;4990466;28;20050;-69
2022/11/28 09:50:34;;;;;;;21.08;13.85;;;8.70;99.90;;;;;;4988794;28;20077;-69
2022/11/28 09:53:21;;;;;;;21.98;14.48;;;8.60;99.90;;;;;;4988481;28;20410;-69
2022/11/28 09:55:55;;;;;;;22.13;13.73;;;8.70;99.90;;;;;;4987356;28;20078;-69
2022/11/28 09:58:44;;;;;;;22.20;14.57;;;8.70;99.90;;;;;;4990949;28;20046;-70
2022/11/28 10:01:14;;;;;;;22.70;13.93;;;8.70;99.90;;;;;;4973417;28;20394;-69
2022/11/28 10:03:48;;;;;;;22.70;13.90;;;8.70;99.90;;;;;;4986359;28;20129;-69
2022/11/28 10:06:36;;;;;;;21.73;13.68;;;8.70;99.90;;;;;;4992883;28;20124;-70
2022/11/28 10:09:47;;;;;;;20.92;13.70;;;8.80;99.90;;;;;;4990361;28;20042;-71
2022/11/28 10:12:13;;;;;;;22.23;13.32;;;8.80;99.90;;;;;;4981162;28;20417;-70
2022/11/28 10:15:05;;;;;;;22.33;13.90;;;8.80;99.90;;;;;;4993591;28;20041;-71
2022/11/28 10:17:54;;;;;;;20.58;12.80;;;8.80;99.90;;;;;;4994424;28;20504;-71
2022/11/28 10:20:33;;;;;;;19.95;12.85;;;8.80;99.90;;;;;;4991804;28;20054;-71
2022/11/28 10:23:14;;;;;;;20.48;12.23;;;8.80;99.90;;;;;;4993321;28;20069;-71
2022/11/28 10:25:50;;;;;;;19.13;12.27;;;8.90;99.90;;;;;;4988927;28;20056;-71
2022/11/28 10:28:22;;;;;;;20.80;12.77;;;8.90;99.90;;;;;;4985365;28;20045;-71
2022/11/28 10:31:19;;;;;;;20.75;12.60;;;8.90;99.90;;;;;;4992418;28;20563;-71
2022/11/28 10:33:52;;;;;;;20.13;12.38;;;8.90;99.90;;;;;;4966544;28;20497;-71
2022/11/28 10:36:29;;;;;;;17.85;12.00;;;9.00;99.90;;;;;;4979290;28;20053;-70
2022/11/28 10:38:57;;;;;;;18.05;11.82;;;8.90;99.90;;;;;;4992434;28;20038;-71
2022/11/28 10:41:29;;;;;;;19.60;11.98;;;9.00;99.90;;;;;;4994145;28;20038;-71
2022/11/28 10:44:12;;;;;;;18.73;11.63;;;8.90;99.90;;;;;;4984799;28;20045;-71
2022/11/28 10:47:05;;;;;;;17.27;11.82;;;8.90;99.90;;;;;;4985689;28;20053;-71
2022/11/28 10:49:45;;;;;;;18.45;11.75;;;9.00;99.90;;;;;;5010850;28;20112;-71
2022/11/28 10:52:20;;;;;;;18.27;11.93;;;9.00;99.90;;;;;;5005694;28;20034;-71
2022/11/28 10:55:09;;;;;;;17.75;11.60;;;9.00;99.90;;;;;;4993061;28;20054;-71
2022/11/28 10:57:42;;;;;;;17.55;10.82;;;9.10;99.90;;;;;;4993002;28;20054;-71
2022/11/28 11:00:19;;;;;;;17.65;11.52;;;9.10;99.90;;;;;;5006355;28;20514;-71
2022/11/28 11:02:51;;;;;;;16.67;11.15;;;9.10;99.90;;;;;;4979733;28;20127;-71
2022/11/28 11:05:29;;;;;;;15.85;10.77;;;9.10;99.90;;;;;;4992944;28;20119;-71
2022/11/28 11:08:04;;;;;;;16.90;10.93;;;9.10;99.90;;;;;;4984849;28;21823;-71
2022/11/28 11:10:37;;;;;;;16.75;11.40;;;9.10;99.90;;;;;;4985326;28;20551;-70
2022/11/28 11:13:18;;;;;;;17.52;10.82;;;9.10;99.90;;;;;;5008436;28;20499;-71
2022/11/28 11:15:44;;;;;;;16.10;11.07;;;9.10;99.90;;;;;;5009421;28;20108;-71
2022/11/28 11:18:24;;;;;;;15.48;10.35;;;9.10;99.90;;;;;;4987354;28;20442;-71
2022/11/28 11:20:50;;;;;;;14.80;10.32;;;9.10;99.90;;;;;;4994658;28;20052;-71
2022/11/28 11:23:19;;;;;;;14.80;10.18;;;9.10;99.90;;;;;;4996703;28;20050;-71
2022/11/28 11:25:54;;;;;;;17.63;10.57;;;9.10;99.90;;;;;;4989025;28;20045;-71
2022/11/28 11:28:41;;;;;;;14.77;10.02;;;9.10;99.90;;;;;;4993955;28;20127;-71
2022/11/28 11:31:24;;;;;;;15.35;10.63;;;9.10;99.90;;;;;;4996662;28;20129;-70
2022/11/28 11:34:00;;;;;;;14.32;10.02;;;9.10;99.90;;;;;;4985891;28;20046;-71
2022/11/28 11:36:28;;;;;;;16.05;11.05;;;9.10;99.90;;;;;;4990442;28;20496;-71
2022/11/28 11:39:26;;;;;;;15.40;10.00;;;9.10;99.90;;;;;;5011385;28;20048;-71
2022/11/28 11:42:00;;;;;;;14.10;9.95;;;9.10;99.90;;;;;;4966773;28;20416;-71
2022/11/28 11:44:29;;;;;;;12.63;9.30;;;9.20;99.90;;;;;;4991902;28;20065;-71
2022/11/28 11:47:02;;;;;;;15.43;9.85;;;9.10;99.90;;;;;;4995737;28;20070;-71
2022/11/28 11:49:31;;;;;;;13.38;9.13;;;9.10;99.90;;;;;;4995553;28;20065;-71
2022/11/28 11:52:13;;;;;;;14.30;10.05;;;9.10;99.90;;;;;;4987763;28;20088;-71
2022/11/28 11:54:56;;;;;;;13.45;9.50;;;9.10;99.90;;;;;;4993743;28;20045;-71
2022/11/28 11:57:42;;;;;;;14.02;9.77;;;9.10;99.90;;;;;;4995029;28;20042;-69
2022/11/28 12:00:17;;;;;;;14.35;9.50;;;9.10;99.90;;;;;;5006890;28;20065;-70
2022/11/28 12:02:53;;;;;;;15.18;9.73;;;9.10;99.90;;;;;;4995439;28;20050;-69
2022/11/28 12:05:45;;;;;;;13.43;9.07;;;9.10;99.90;;;;;;5013344;28;20037;-69
2022/11/28 12:08:21;;;;;;;14.05;9.68;;;9.10;99.90;;;;;;4982458;28;20058;-69
2022/11/28 12:11:03;;;;;;;16.80;9.95;;;9.10;99.90;;;;;;4994484;28;20562;-70
2022/11/28 12:13:29;;;;;;;15.40;10.15;;;9.10;99.90;;;;;;5010687;28;20038;-70
2022/11/28 12:16:19;;;;;;;14.13;9.40;;;9.00;99.90;;;;;;5006421;28;20559;-70
2022/11/28 12:18:56;;;;;;;13.57;9.45;;;9.10;99.90;;;;;;4993709;28;20401;-69
2022/11/28 12:21:31;;;;;;;15.98;10.45;;;9.10;99.90;;;;;;4995165;28;20129;-70
2022/11/28 12:24:11;;;;;;;16.35;10.48;;;9.10;99.90;;;;;;4987660;28;20838;-69
2022/11/28 12:26:50;;;;;;;14.55;9.35;;;9.10;99.90;;;;;;4990895;28;20041;-70
2022/11/28 12:29:47;;;;;;;14.43;9.70;;;9.10;99.90;;;;;;5011363;28;20059;-69
2022/11/28 12:32:39;;;;;;;15.13;10.20;;;9.10;99.90;;;;;;4990939;28;20042;-69
2022/11/28 12:35:12;;;;;;;13.38;9.23;;;9.10;99.90;;;;;;5012737;28;20076;-70
2022/11/28 12:37:48;;;;;;;13.52;9.75;;;9.10;99.90;;;;;;4995027;28;20091;-69
2022/11/28 12:40:35;;;;;;;15.43;9.93;;;9.10;99.90;;;;;;5013012;28;20112;-69
2022/11/28 12:43:26;;;;;;;16.30;10.27;;;9.10;99.90;;;;;;5002771;28;20124;-70
2022/11/28 12:46:29;;;;;;;18.90;10.73;;;9.10;99.90;;;;;;4993270;28;20417;-70
2022/11/28 12:49:13;;;;;;;15.23;9.85;;;9.10;99.90;;;;;;4988025;28;20046;-70
2022/11/28 12:51:55;;;;;;;16.20;9.98;;;9.10;99.90;;;;;;5008377;28;20040;-70
2022/11/28 12:54:27;;;;;;;;;;;9.10;99.90;;;;;;4992530;28;20041;-69
2022/11/28 12:57:01;;;;;;;14.70;9.90;;;9.10;99.90;;;;;;5012726;28;19917;-69
2022/11/28 12:59:40;;;;;;;15.32;10.10;;;9.10;99.90;;;;;;4990032;28;20046;-70
2022/11/28 13:02:44;;;;;;;18.02;10.38;;;9.20;99.90;;;;;;4994085;28;20133;-69
2022/11/28 13:05:33;;;;;;;16.73;10.43;;;9.20;99.90;;;;;;4945106;28;20532;-70
2022/11/28 13:08:21;;;;;;;15.00;10.13;;;9.20;99.90;;;;;;4974871;28;20081;-70
2022/11/28 13:11:05;;;;;;;15.90;10.55;;;9.20;99.90;;;;;;4993356;28;20033;-71